This is the latest recevied weather packets stored in our database for station/object 9W2CHF-3. If no packets are shown the sender has not sent any weather packets the latest 10 day(s).
| Time | Temp. | Humidity | Pressure | Rain* | Wind** | Luminosity | Snow |
|---|---|---|---|---|---|---|---|
| 1777432006 | 38.89° C | 53% | 1011.7 hPa | - | - | - | - |
| 1777430806 | 38.33° C | 54% | 1011.8 hPa | - | - | - | - |
| 1777429606 | 37.22° C | 58% | 1011.9 hPa | - | - | - | - |
| 1777428406 | 36.67° C | 61% | 1011.9 hPa | - | - | - | - |
| 1777427205 | 36.11° C | 63% | 1011.9 hPa | - | - | - | - |
| 1777426005 | 35.56° C | 68% | 1011.5 hPa | - | - | - | - |
| 1777424805 | 35° C | 72% | 1011.2 hPa | - | - | - | - |
| 1777423605 | 35.56° C | 68% | 1010.8 hPa | - | - | - | - |
| 1777422405 | 34.44° C | 78% | 1010.5 hPa | - | - | - | - |
| 1777421205 | 32.78° C | 88% | 1010.4 hPa | - | - | - | - |
| 1777420005 | 31.11° C | 95% | 1010.1 hPa | - | - | - | - |
| 1777418805 | 29.44° C | 100% | 1009.9 hPa | - | - | - | - |
| 1777417604 | 29.44° C | 100% | 1009.9 hPa | - | - | - | - |
| 1777416404 | 29.44° C | 100% | 1009.7 hPa | - | - | - | - |
| 1777415204 | 29.44° C | 100% | 1009.6 hPa | - | - | - | - |
| 1777414004 | 30.56° C | 97% | 1009.2 hPa | - | - | - | - |
| 1777412804 | 30.56° C | 96% | 1009.1 hPa | - | - | - | - |
| 1777411603 | 29.44° C | 100% | 1008.9 hPa | - | - | - | - |
| 1777410403 | 30° C | 100% | 1008.8 hPa | - | - | - | - |
| 1777409203 | 30.56° C | 96% | 1008.7 hPa | - | - | - | - |
| 1777408003 | 30° C | 100% | 1008.6 hPa | - | - | - | - |
| 1777406805 | 31.11° C | 94% | 1008.6 hPa | - | - | - | - |
| 1777405603 | 30.56° C | 95% | 1008.7 hPa | - | - | - | - |
| 1777404403 | 30° C | 98% | 1008.8 hPa | - | - | - | - |
| 1777403203 | 30° C | 97% | 1008.6 hPa | - | - | - | - |
* Rain since midnight (hover to see other rain measurements)
** Current wind speed in m/s (hover to see current wind gust speed)